createdAt,value
2024-01-03T00:00:01.726Z,54.14
2024-01-03T00:01:01.817Z,54.10
2024-01-03T00:02:01.826Z,54.13
2024-01-03T00:03:01.876Z,55.00
2024-01-03T00:04:02.047Z,52.24
2024-01-03T00:05:01.967Z,52.83
2024-01-03T00:06:02.222Z,53.57
2024-01-03T00:07:02.070Z,52.46
2024-01-03T00:08:02.092Z,53.36
2024-01-03T00:09:02.221Z,51.69
2024-01-03T00:10:02.199Z,53.67
2024-01-03T00:11:02.253Z,52.76
2024-01-03T00:12:02.347Z,53.67
2024-01-03T00:13:02.362Z,53.39
2024-01-03T00:14:02.414Z,53.90
2024-01-03T00:15:02.474Z,54.40
2024-01-03T00:16:02.523Z,53.39
2024-01-03T00:17:02.542Z,55.81
2024-01-03T00:18:02.753Z,52.94
2024-01-03T00:19:02.807Z,55.31
2024-01-03T00:20:02.696Z,52.96
2024-01-03T00:21:02.870Z,54.53
2024-01-03T00:22:02.784Z,54.11
2024-01-03T00:23:02.828Z,55.08
2024-01-03T00:24:02.882Z,53.52
2024-01-03T00:25:02.945Z,54.39
2024-01-03T00:26:02.973Z,53.81
2024-01-03T00:27:03.062Z,54.36
2024-01-03T00:28:03.073Z,53.71
2024-01-03T00:29:03.124Z,55.90
2024-01-03T00:30:03.269Z,55.04
2024-01-03T00:31:03.227Z,53.88
2024-01-03T00:32:03.245Z,53.13
2024-01-03T00:33:05.366Z,53.10
2024-01-03T00:34:03.458Z,53.81
2024-01-03T00:35:03.490Z,54.15
2024-01-03T00:36:03.462Z,56.20
2024-01-03T00:37:03.492Z,51.88
2024-01-03T00:38:03.530Z,53.78
2024-01-03T00:39:03.626Z,54.24
2024-01-03T00:40:03.625Z,52.30
2024-01-03T00:41:03.674Z,53.83
2024-01-03T00:42:03.767Z,52.22
2024-01-03T00:43:03.760Z,53.89
2024-01-03T00:44:03.834Z,54.57
2024-01-03T00:45:04.002Z,54.09
2024-01-03T00:46:03.901Z,53.33
2024-01-03T00:47:03.956Z,52.52
2024-01-03T00:48:04.124Z,54.76
2024-01-03T00:49:04.207Z,54.34
2024-01-03T00:50:04.214Z,53.89
2024-01-03T00:51:04.138Z,52.69
2024-01-03T00:52:04.232Z,54.46
2024-01-03T00:53:04.226Z,55.09
2024-01-03T00:54:04.292Z,54.93
2024-01-03T00:55:04.313Z,54.65
2024-01-03T00:56:04.362Z,53.47
2024-01-03T00:57:04.462Z,52.37
2024-01-03T00:58:04.450Z,54.90
2024-01-03T00:59:04.498Z,52.56
2024-01-03T01:00:04.611Z,53.87
2024-01-03T01:01:04.636Z,54.29
2024-01-03T01:02:04.628Z,52.58
2024-01-03T01:03:04.692Z,53.88
2024-01-03T01:04:04.803Z,55.18
2024-01-03T01:05:04.823Z,52.08
2024-01-03T01:06:04.891Z,53.22
2024-01-03T01:07:04.864Z,51.43
2024-01-03T01:08:05.002Z,55.95
2024-01-03T01:09:05.082Z,53.71
2024-01-03T01:10:05.000Z,54.28
2024-01-03T01:11:05.055Z,52.41
2024-01-03T01:12:05.116Z,54.41
2024-01-03T01:13:05.155Z,55.75
2024-01-03T01:14:05.203Z,53.23
2024-01-03T01:15:05.308Z,54.69
2024-01-03T01:16:05.295Z,51.92
2024-01-03T01:17:05.348Z,53.04
2024-01-03T01:18:05.575Z,54.10
2024-01-03T01:19:05.499Z,52.90
2024-01-03T01:20:05.485Z,54.34
2024-01-03T01:21:05.609Z,55.23
2024-01-03T01:22:05.570Z,53.97
2024-01-03T01:23:05.637Z,53.33
2024-01-03T01:24:05.732Z,52.00
2024-01-03T01:25:05.696Z,54.16
2024-01-03T01:26:05.742Z,53.29
2024-01-03T01:27:05.857Z,53.75
2024-01-03T01:28:06.103Z,53.72
2024-01-03T01:29:05.871Z,55.83
2024-01-03T01:30:05.992Z,53.02
2024-01-03T01:31:05.958Z,53.96
2024-01-03T01:32:06.009Z,52.52
2024-01-03T01:33:06.246Z,54.04
2024-01-03T01:34:06.263Z,52.85
2024-01-03T01:35:06.138Z,53.74
2024-01-03T01:36:06.181Z,52.25
2024-01-03T01:37:06.217Z,54.30
2024-01-03T01:38:06.506Z,55.29
2024-01-03T01:39:06.305Z,55.46
2024-01-03T01:40:06.326Z,54.74
2024-01-03T01:41:06.367Z,53.65
2024-01-03T01:42:06.414Z,53.52
2024-01-03T01:43:06.464Z,53.42
2024-01-03T01:44:06.519Z,53.75
2024-01-03T01:45:06.573Z,53.83
2024-01-03T01:46:06.610Z,51.49
2024-01-03T01:47:06.669Z,54.28
2024-01-03T01:48:06.906Z,52.07
2024-01-03T01:49:06.758Z,52.65
2024-01-03T01:50:06.799Z,54.74
2024-01-03T01:51:06.826Z,51.74
2024-01-03T01:52:06.876Z,53.93
2024-01-03T01:53:06.910Z,54.20
2024-01-03T01:54:06.986Z,52.22
2024-01-03T01:55:06.980Z,52.34
2024-01-03T01:56:07.020Z,53.22
2024-01-03T01:57:07.061Z,54.95
2024-01-03T01:58:07.391Z,52.26
2024-01-03T01:59:07.161Z,50.83
2024-01-03T02:00:07.205Z,53.55
2024-01-03T02:01:07.273Z,51.96
2024-01-03T02:02:07.298Z,53.98
2024-01-03T02:03:07.341Z,53.81
2024-01-03T02:04:07.446Z,52.34
2024-01-03T02:05:07.478Z,54.08
2024-01-03T02:06:07.535Z,51.18
2024-01-03T02:07:07.545Z,52.05
2024-01-03T02:08:07.760Z,54.16
2024-01-03T02:09:07.644Z,53.96
2024-01-03T02:10:07.724Z,53.86
2024-01-03T02:11:07.719Z,52.71
2024-01-03T02:12:07.765Z,54.60
2024-01-03T02:13:07.854Z,53.18
2024-01-03T02:14:07.861Z,54.60
2024-01-03T02:15:07.894Z,54.06
2024-01-03T02:16:07.933Z,52.20
2024-01-03T02:17:07.981Z,53.62
2024-01-03T02:18:08.469Z,54.39
2024-01-03T02:19:08.152Z,53.38
2024-01-03T02:20:08.133Z,53.51
2024-01-03T02:21:08.166Z,54.98
2024-01-03T02:22:08.214Z,52.90
2024-01-03T02:23:08.254Z,53.84
2024-01-03T02:24:08.293Z,53.85
2024-01-03T02:25:08.341Z,51.23
2024-01-03T02:26:17.614Z,53.40
2024-01-03T02:27:09.422Z,53.50
2024-01-03T02:28:08.575Z,53.56
2024-01-03T02:29:08.400Z,54.48
2024-01-03T02:30:08.415Z,54.13
2024-01-03T02:31:08.410Z,55.22
2024-01-03T02:32:08.401Z,56.28
2024-01-03T02:33:08.507Z,55.05
2024-01-03T02:34:08.458Z,53.15
2024-01-03T02:35:08.412Z,52.30
2024-01-03T02:36:08.424Z,52.51
2024-01-03T02:37:08.424Z,53.19
2024-01-03T02:38:08.674Z,53.81
2024-01-03T02:39:08.440Z,54.28
2024-01-03T02:40:08.459Z,53.55
2024-01-03T02:41:08.571Z,53.99
2024-01-03T02:42:08.658Z,53.12
2024-01-03T02:43:08.590Z,53.22
2024-01-03T02:44:08.633Z,55.75
2024-01-03T02:45:08.688Z,54.14
2024-01-03T02:46:08.711Z,52.34
2024-01-03T02:47:08.747Z,51.50
2024-01-03T02:48:09.227Z,56.09
2024-01-03T02:49:09.100Z,54.85
2024-01-03T02:50:08.880Z,53.37
2024-01-03T02:51:08.926Z,52.42
2024-01-03T02:52:08.978Z,52.58
2024-01-03T02:53:09.028Z,52.43
2024-01-03T02:54:09.068Z,52.59
2024-01-03T02:55:09.101Z,51.71
2024-01-03T02:56:09.140Z,54.84
2024-01-03T02:57:09.180Z,57.70
2024-01-03T02:58:09.436Z,52.60
2024-01-03T02:59:09.278Z,54.06
2024-01-03T03:00:09.306Z,54.68
2024-01-03T03:01:09.388Z,54.04
2024-01-03T03:02:09.385Z,53.90
2024-01-03T03:03:09.462Z,53.23
2024-01-03T03:04:09.512Z,55.72
2024-01-03T03:05:09.542Z,54.13
2024-01-03T03:06:09.791Z,53.56
2024-01-03T03:07:09.617Z,55.00
2024-01-03T03:08:09.961Z,52.55
2024-01-03T03:09:16.594Z,52.71
2024-01-03T03:10:10.724Z,52.80
2024-01-03T03:11:09.721Z,53.06
2024-01-03T03:12:09.712Z,53.17
2024-01-03T03:13:09.724Z,52.92
2024-01-03T03:14:09.725Z,56.32
2024-01-03T03:15:09.734Z,53.87
2024-01-03T03:16:09.744Z,54.81
2024-01-03T03:17:09.760Z,52.57
2024-01-03T03:18:10.192Z,55.34
2024-01-03T03:19:09.899Z,54.59
2024-01-03T03:20:09.735Z,55.21
2024-01-03T03:21:09.766Z,53.41
2024-01-03T03:22:09.743Z,57.50
2024-01-03T03:23:09.783Z,53.49
2024-01-03T03:24:09.822Z,53.55
2024-01-03T03:25:09.895Z,53.37
2024-01-03T03:26:09.924Z,52.31
2024-01-03T03:27:09.965Z,53.72
2024-01-03T03:28:10.649Z,54.06
2024-01-03T03:29:10.051Z,53.92
2024-01-03T03:30:10.152Z,53.35
2024-01-03T03:31:10.121Z,56.39
2024-01-03T03:32:10.158Z,55.35
2024-01-03T03:33:10.369Z,54.60
2024-01-03T03:34:10.421Z,54.15
2024-01-03T03:35:10.302Z,55.60
2024-01-03T03:36:10.318Z,55.46
2024-01-03T03:37:10.350Z,53.65
2024-01-03T03:38:10.699Z,55.76
2024-01-03T03:39:10.449Z,53.49
2024-01-03T03:40:10.477Z,53.20
2024-01-03T03:41:10.521Z,53.47
2024-01-03T03:42:10.557Z,52.30
2024-01-03T03:43:10.601Z,54.02
2024-01-03T03:44:10.641Z,53.52
2024-01-03T03:45:10.677Z,53.49
2024-01-03T03:46:10.779Z,55.93
2024-01-03T03:47:10.777Z,56.74
2024-01-03T03:48:11.329Z,54.79
2024-01-03T03:49:10.944Z,56.09
2024-01-03T03:50:10.940Z,54.90
2024-01-03T03:51:10.937Z,55.80
2024-01-03T03:52:10.976Z,53.78
2024-01-03T03:53:11.014Z,54.71
2024-01-03T03:54:11.057Z,54.77
2024-01-03T03:55:11.098Z,55.64
2024-01-03T03:56:11.144Z,53.40
2024-01-03T03:57:11.187Z,53.74
2024-01-03T03:58:11.397Z,53.83
2024-01-03T03:59:11.274Z,51.72
2024-01-03T04:00:11.315Z,53.86
2024-01-03T04:01:11.368Z,55.23
2024-01-03T04:02:11.387Z,55.75
2024-01-03T04:03:11.417Z,53.90
2024-01-03T04:04:11.518Z,55.18
2024-01-03T04:05:11.514Z,53.79
2024-01-03T04:06:11.554Z,53.87
2024-01-03T04:07:11.598Z,53.02
2024-01-03T04:08:11.824Z,54.04
2024-01-03T04:09:11.645Z,55.32
2024-01-03T04:10:11.693Z,55.17
2024-01-03T04:11:11.730Z,52.79
2024-01-03T04:12:11.779Z,54.14
2024-01-03T04:13:11.935Z,54.66
2024-01-03T04:14:11.849Z,54.16
2024-01-03T04:15:11.903Z,53.14
2024-01-03T04:16:11.923Z,54.26
2024-01-03T04:17:11.973Z,52.47
2024-01-03T04:18:12.303Z,53.28
2024-01-03T04:19:12.200Z,53.81
2024-01-03T04:20:12.070Z,54.99
2024-01-03T04:21:12.131Z,53.88
2024-01-03T04:22:12.155Z,54.99
2024-01-03T04:23:12.202Z,54.14
2024-01-03T04:24:12.249Z,52.87
2024-01-03T04:25:12.280Z,54.88
2024-01-03T04:26:12.327Z,56.84
2024-01-03T04:27:12.368Z,53.40
2024-01-03T04:28:12.412Z,54.07
2024-01-03T04:29:12.461Z,54.05
2024-01-03T04:30:12.597Z,53.93
2024-01-03T04:31:12.523Z,56.15
2024-01-03T04:32:12.574Z,55.88
2024-01-03T04:33:12.727Z,54.91
2024-01-03T04:34:12.707Z,52.18
2024-01-03T04:35:12.720Z,55.02
2024-01-03T04:36:12.727Z,53.15
2024-01-03T04:37:12.768Z,51.78
2024-01-03T04:38:12.806Z,54.33
2024-01-03T04:39:20.051Z,50.00
2024-01-03T04:40:20.080Z,50.00
2024-01-03T04:41:20.150Z,50.00
2024-01-03T04:42:20.099Z,50.00
2024-01-03T04:43:20.105Z,50.00
2024-01-03T04:44:20.130Z,51.71
2024-01-03T04:45:20.137Z,52.22
2024-01-03T04:46:20.143Z,50.36
2024-01-03T04:47:20.218Z,55.07
2024-01-03T04:48:20.275Z,53.67
2024-01-03T04:49:20.274Z,52.16
2024-01-03T04:50:20.243Z,52.33
2024-01-03T04:51:20.737Z,53.12
2024-01-03T04:52:20.207Z,51.86
2024-01-03T04:53:20.230Z,55.35
2024-01-03T04:54:20.215Z,54.26
2024-01-03T04:55:20.232Z,53.16
2024-01-03T04:56:20.348Z,52.33
2024-01-03T04:57:20.817Z,51.07
2024-01-03T04:58:20.249Z,54.13
2024-01-03T04:59:20.321Z,54.73
2024-01-03T05:00:20.276Z,53.84
2024-01-03T05:01:20.294Z,53.60
2024-01-03T05:02:20.307Z,54.12
2024-01-03T05:03:20.378Z,53.45
2024-01-03T05:04:20.316Z,53.80
2024-01-03T05:05:20.458Z,54.49
2024-01-03T05:06:20.437Z,53.97
2024-01-03T05:07:20.361Z,51.62
2024-01-03T05:08:20.418Z,52.70
2024-01-03T05:09:20.423Z,55.14
2024-01-03T05:10:20.417Z,53.52
2024-01-03T05:11:20.470Z,54.68
2024-01-03T05:12:20.429Z,52.79
2024-01-03T05:13:20.444Z,55.24
2024-01-03T05:14:20.493Z,52.58
2024-01-03T05:15:20.496Z,54.97
2024-01-03T05:16:20.479Z,56.25
2024-01-03T05:17:20.551Z,54.07
2024-01-03T05:18:20.608Z,55.23
2024-01-03T05:19:20.624Z,54.30
2024-01-03T05:20:20.594Z,53.29
2024-01-03T05:21:20.547Z,53.28
2024-01-03T05:22:20.560Z,54.93
2024-01-03T05:23:20.631Z,51.84
2024-01-03T05:24:20.588Z,52.93
2024-01-03T05:25:20.604Z,52.59
2024-01-03T05:26:20.664Z,51.91
2024-01-03T05:27:20.630Z,54.35
2024-01-03T05:28:20.665Z,52.59
2024-01-03T05:29:20.672Z,53.17
2024-01-03T05:30:20.824Z,52.53
2024-01-03T05:31:20.686Z,51.36
2024-01-03T05:32:20.782Z,54.14
2024-01-03T05:33:20.877Z,52.65
2024-01-03T05:34:20.718Z,52.92
2024-01-03T05:35:20.756Z,55.37
2024-01-03T05:36:20.757Z,50.52
2024-01-03T05:37:20.820Z,53.69
2024-01-03T05:38:20.797Z,55.01
2024-01-03T05:39:20.775Z,54.83
2024-01-03T05:40:20.791Z,52.86
2024-01-03T05:41:20.804Z,55.12
2024-01-03T05:42:20.827Z,52.18
2024-01-03T05:43:20.858Z,53.56
2024-01-03T05:44:20.934Z,52.69
2024-01-03T05:45:20.950Z,51.79
2024-01-03T05:46:21.058Z,53.93
2024-01-03T05:47:21.059Z,54.42
2024-01-03T05:48:21.181Z,50.57
2024-01-03T05:49:21.187Z,52.70
2024-01-03T05:50:21.177Z,53.89
2024-01-03T05:51:21.191Z,50.94
2024-01-03T05:52:21.239Z,52.86
2024-01-03T05:53:21.289Z,55.66
2024-01-03T05:54:21.316Z,52.12
2024-01-03T05:55:21.361Z,55.35
2024-01-03T05:56:21.411Z,53.77
2024-01-03T05:57:21.415Z,54.44
2024-01-03T05:58:21.500Z,53.64
2024-01-03T05:59:21.554Z,52.62
2024-01-03T06:00:21.586Z,53.73
2024-01-03T06:01:21.735Z,53.19
2024-01-03T06:02:21.683Z,53.74
2024-01-03T06:03:21.719Z,51.30
2024-01-03T06:04:21.692Z,52.68
2024-01-03T06:05:21.892Z,53.55
2024-01-03T06:06:21.880Z,51.01
2024-01-03T06:07:21.828Z,54.06
2024-01-03T06:08:21.915Z,54.03
2024-01-03T06:09:21.923Z,52.69
2024-01-03T06:10:21.968Z,54.13
2024-01-03T06:11:22.003Z,54.66
2024-01-03T06:12:22.014Z,50.88
2024-01-03T06:13:22.049Z,54.77
2024-01-03T06:14:22.126Z,55.03
2024-01-03T06:15:22.159Z,54.33
2024-01-03T06:16:22.165Z,53.00
2024-01-03T06:17:22.211Z,55.61
2024-01-03T06:18:22.369Z,54.49
2024-01-03T06:19:22.319Z,52.59
2024-01-03T06:20:23.974Z,53.68
2024-01-03T06:21:22.344Z,53.04
2024-01-03T06:22:22.387Z,55.24
2024-01-03T06:23:22.477Z,53.92
2024-01-03T06:24:22.475Z,54.23
2024-01-03T06:25:22.519Z,54.29
2024-01-03T06:26:22.607Z,54.06
2024-01-03T06:27:22.640Z,54.31
2024-01-03T06:28:22.630Z,53.22
2024-01-03T06:29:22.826Z,55.67
2024-01-03T06:30:22.956Z,52.81
2024-01-03T06:31:22.834Z,53.08
2024-01-03T06:32:22.918Z,55.64
2024-01-03T06:33:23.006Z,54.48
2024-01-03T06:34:22.909Z,54.33
2024-01-03T06:35:22.906Z,53.92
2024-01-03T06:36:22.941Z,52.73
2024-01-03T06:37:22.980Z,54.59
2024-01-03T06:38:23.049Z,51.99
2024-01-03T06:39:23.053Z,54.46
2024-01-03T06:40:23.097Z,55.80
2024-01-03T06:41:23.171Z,56.03
2024-01-03T06:42:23.164Z,54.38
2024-01-03T06:43:23.201Z,54.16
2024-01-03T06:44:23.248Z,53.32
2024-01-03T06:45:23.313Z,54.64
2024-01-03T06:46:23.344Z,53.42
2024-01-03T06:47:23.465Z,55.86
2024-01-03T06:48:23.516Z,52.76
2024-01-03T06:49:23.589Z,55.32
2024-01-03T06:50:23.525Z,54.79
2024-01-03T06:51:23.505Z,54.80
2024-01-03T06:52:23.536Z,56.01
2024-01-03T06:53:23.620Z,53.86
2024-01-03T06:54:23.616Z,54.40
2024-01-03T06:55:23.654Z,54.58
2024-01-03T06:56:23.714Z,54.07
2024-01-03T06:57:23.790Z,53.50
2024-01-03T06:58:23.800Z,53.52
2024-01-03T06:59:23.858Z,54.30
2024-01-03T07:00:23.843Z,54.02
2024-01-03T07:01:23.939Z,53.59
2024-01-03T07:02:23.995Z,54.81
2024-01-03T07:03:24.072Z,52.60
2024-01-03T07:04:26.376Z,53.86
2024-01-03T07:05:24.076Z,52.98
2024-01-03T07:06:24.092Z,55.54
2024-01-03T07:07:24.041Z,56.90
2024-01-03T07:08:24.063Z,56.13
2024-01-03T07:09:24.058Z,52.82
2024-01-03T07:10:24.068Z,56.18
2024-01-03T07:11:24.133Z,54.88
2024-01-03T07:12:24.095Z,53.43
2024-01-03T07:13:24.112Z,54.59
2024-01-03T07:14:24.149Z,54.30
2024-01-03T07:15:24.153Z,53.08
2024-01-03T07:16:24.160Z,52.23
2024-01-03T07:17:24.302Z,55.55
2024-01-03T07:18:24.381Z,53.66
2024-01-03T07:19:24.241Z,53.03
2024-01-03T07:20:24.260Z,53.78
2024-01-03T07:21:24.198Z,55.09
2024-01-03T07:22:24.219Z,54.34
2024-01-03T07:23:24.333Z,51.84
2024-01-03T07:24:24.234Z,53.97
2024-01-03T07:25:24.251Z,55.40
2024-01-03T07:26:24.271Z,53.93
2024-01-03T07:27:24.272Z,55.53
2024-01-03T07:28:24.279Z,55.10
2024-01-03T07:29:24.292Z,56.99
2024-01-03T07:30:24.381Z,52.42
2024-01-03T07:31:24.318Z,55.52
2024-01-03T07:32:24.392Z,55.16
2024-01-03T07:33:24.435Z,56.51
2024-01-03T07:34:24.459Z,55.01
2024-01-03T07:35:24.383Z,53.97
2024-01-03T07:36:24.373Z,54.00
2024-01-03T07:37:24.388Z,54.11
2024-01-03T07:38:24.454Z,56.16
2024-01-03T07:39:24.412Z,53.28
2024-01-03T07:40:24.425Z,53.88
2024-01-03T07:41:24.475Z,52.75
2024-01-03T07:42:24.472Z,53.75
2024-01-03T07:43:24.478Z,55.54
2024-01-03T07:44:24.511Z,52.38
2024-01-03T07:45:24.496Z,54.19
2024-01-03T07:46:24.693Z,54.82
2024-01-03T07:47:24.598Z,56.89
2024-01-03T07:48:24.724Z,54.93
2024-01-03T07:49:24.642Z,56.11
2024-01-03T07:50:24.588Z,55.88
2024-01-03T07:51:24.571Z,54.57
2024-01-03T07:52:27.004Z,54.98
2024-01-03T07:53:24.695Z,55.06
2024-01-03T07:54:24.611Z,55.40
2024-01-03T07:55:24.622Z,54.71
2024-01-03T07:56:24.651Z,55.65
2024-01-03T07:57:24.638Z,55.68
2024-01-03T07:58:24.655Z,57.55
2024-01-03T07:59:24.693Z,56.49
2024-01-03T08:00:24.668Z,56.22
2024-01-03T08:01:24.740Z,55.38
2024-01-03T08:02:24.724Z,53.81
2024-01-03T08:03:24.750Z,54.14
2024-01-03T08:04:24.711Z,54.46
2024-01-03T08:05:24.792Z,55.49
2024-01-03T08:06:24.843Z,54.51
2024-01-03T08:07:24.761Z,54.66
2024-01-03T08:08:24.806Z,53.65
2024-01-03T08:09:24.810Z,54.43
2024-01-03T08:10:24.805Z,55.41
2024-01-03T08:11:24.865Z,56.14
2024-01-03T08:12:24.857Z,53.72
2024-01-03T08:13:24.856Z,55.14
2024-01-03T08:14:24.973Z,56.02
2024-01-03T08:15:24.892Z,53.81
2024-01-03T08:16:24.912Z,55.20
2024-01-03T08:17:25.008Z,56.49
2024-01-03T08:18:25.032Z,53.79
2024-01-03T08:19:25.070Z,54.57
2024-01-03T08:20:25.110Z,57.57
2024-01-03T08:21:25.060Z,54.04
2024-01-03T08:22:24.981Z,54.80
2024-01-03T08:23:25.026Z,56.96
2024-01-03T08:24:25.010Z,57.21
2024-01-03T08:25:25.047Z,55.99
2024-01-03T08:26:25.073Z,52.24
2024-01-03T08:27:25.057Z,53.87
2024-01-03T08:28:25.059Z,54.97
2024-01-03T08:29:25.091Z,53.00
2024-01-03T08:30:25.164Z,55.97
2024-01-03T08:31:25.093Z,55.30
2024-01-03T08:32:25.191Z,54.54
2024-01-03T08:33:25.204Z,57.56
2024-01-03T08:34:25.193Z,54.61
2024-01-03T08:35:25.223Z,56.70
2024-01-03T08:36:25.165Z,56.07
2024-01-03T08:37:25.192Z,56.33
2024-01-03T08:38:25.239Z,54.99
2024-01-03T08:39:25.211Z,53.81
2024-01-03T08:40:25.230Z,55.04
2024-01-03T08:41:25.289Z,57.17
2024-01-03T08:42:25.248Z,55.60
2024-01-03T08:43:25.271Z,56.34
2024-01-03T08:44:25.323Z,56.83
2024-01-03T08:45:25.308Z,55.84
2024-01-03T08:46:25.328Z,55.52
2024-01-03T08:47:25.436Z,56.46
2024-01-03T08:48:25.464Z,55.21
2024-01-03T08:49:25.637Z,55.49
2024-01-03T08:50:25.495Z,55.14
2024-01-03T08:51:25.502Z,56.83
2024-01-03T08:52:25.424Z,54.74
2024-01-03T08:53:25.455Z,55.75
2024-01-03T08:54:25.443Z,55.49
2024-01-03T08:55:25.475Z,55.93
2024-01-03T08:56:25.497Z,56.29
2024-01-03T08:57:25.499Z,58.63
2024-01-03T08:58:25.511Z,56.21
2024-01-03T08:59:25.619Z,55.30
2024-01-03T09:00:25.532Z,52.99
2024-01-03T09:01:25.553Z,56.34
2024-01-03T09:02:25.663Z,56.45
2024-01-03T09:03:25.607Z,53.88
2024-01-03T09:04:25.588Z,56.46
2024-01-03T09:05:25.676Z,53.59
2024-01-03T09:06:25.740Z,55.79
2024-01-03T09:07:25.697Z,55.28
2024-01-03T09:08:25.745Z,54.38
2024-01-03T09:09:25.792Z,56.73
2024-01-03T09:10:25.803Z,55.30
2024-01-03T09:11:25.946Z,54.61
2024-01-03T09:12:25.939Z,56.48
2024-01-03T09:13:25.916Z,56.36
2024-01-03T09:14:25.991Z,56.05
2024-01-03T09:15:26.002Z,54.02
2024-01-03T09:16:26.038Z,53.23
2024-01-03T09:17:26.088Z,57.11
2024-01-03T09:18:26.286Z,54.93
2024-01-03T09:19:26.244Z,55.33
2024-01-03T09:20:26.219Z,56.00
2024-01-03T09:21:26.248Z,53.75
2024-01-03T09:22:26.279Z,56.94
2024-01-03T09:23:26.352Z,57.36
2024-01-03T09:24:26.364Z,55.08
2024-01-03T09:25:26.406Z,56.78
2024-01-03T09:26:26.511Z,55.34
2024-01-03T09:27:26.477Z,56.05
2024-01-03T09:28:26.512Z,55.08
2024-01-03T09:29:26.609Z,55.74
2024-01-03T09:30:26.606Z,54.72
2024-01-03T09:31:26.638Z,57.52
2024-01-03T09:32:26.738Z,56.09
2024-01-03T09:33:26.742Z,53.72
2024-01-03T09:34:26.794Z,57.40
2024-01-03T09:35:26.762Z,54.64
2024-01-03T09:36:28.737Z,55.23
2024-01-03T09:37:26.823Z,54.70
2024-01-03T09:38:26.887Z,55.04
2024-01-03T09:39:26.880Z,54.31
2024-01-03T09:40:26.929Z,56.16
2024-01-03T09:41:26.992Z,54.90
2024-01-03T09:42:27.212Z,55.86
2024-01-03T09:43:27.214Z,56.04
2024-01-03T09:44:27.063Z,55.79
2024-01-03T09:45:27.257Z,55.94
2024-01-03T09:46:27.121Z,55.99
2024-01-03T09:47:27.201Z,57.26
2024-01-03T09:48:27.321Z,55.03
2024-01-03T09:49:27.310Z,53.65
2024-01-03T09:50:27.310Z,53.38
2024-01-03T09:51:27.279Z,55.37
2024-01-03T09:52:27.316Z,54.51
2024-01-03T09:53:27.368Z,57.03
2024-01-03T09:54:27.367Z,58.43
2024-01-03T09:55:27.454Z,54.81
2024-01-03T09:56:27.431Z,54.78
2024-01-03T09:57:27.425Z,55.55
2024-01-03T09:58:27.452Z,54.81
2024-01-03T09:59:27.554Z,54.17
2024-01-03T10:00:27.520Z,57.92
2024-01-03T10:01:27.582Z,54.90
2024-01-03T10:02:27.644Z,56.23
2024-01-03T10:03:27.613Z,56.83
2024-01-03T10:04:27.610Z,58.27
2024-01-03T10:05:27.719Z,56.86
2024-01-03T10:06:27.702Z,56.94
2024-01-03T10:07:27.689Z,56.50
2024-01-03T10:08:27.744Z,55.85
2024-01-03T10:09:27.747Z,56.81
2024-01-03T10:10:27.766Z,57.22
2024-01-03T10:11:27.924Z,55.51
2024-01-03T10:12:27.813Z,56.06
2024-01-03T10:13:27.851Z,57.08
2024-01-03T10:14:27.921Z,56.53
2024-01-03T10:15:27.923Z,57.07
2024-01-03T10:16:27.933Z,57.46
2024-01-03T10:17:28.001Z,56.05
2024-01-03T10:18:29.078Z,55.95
2024-01-03T10:19:28.201Z,56.66
2024-01-03T10:20:28.077Z,58.60
2024-01-03T10:21:28.063Z,57.50
2024-01-03T10:22:28.081Z,56.10
2024-01-03T10:23:28.137Z,56.60
2024-01-03T10:24:28.133Z,56.15
2024-01-03T10:25:28.202Z,57.36
2024-01-03T10:26:28.280Z,55.78
2024-01-03T10:27:28.212Z,58.49
2024-01-03T10:28:28.260Z,58.67
2024-01-03T10:29:28.274Z,58.65
2024-01-03T10:30:28.445Z,56.26
2024-01-03T10:31:28.311Z,56.34
2024-01-03T10:32:28.436Z,57.33
2024-01-03T10:33:28.561Z,55.84
2024-01-03T10:34:28.527Z,57.01
2024-01-03T10:35:28.465Z,55.72
2024-01-03T10:36:28.475Z,56.50
2024-01-03T10:37:28.479Z,57.63
2024-01-03T10:38:28.516Z,55.76
2024-01-03T10:39:28.521Z,58.58
2024-01-03T10:40:28.549Z,57.12
2024-01-03T10:41:28.669Z,57.57
2024-01-03T10:42:28.592Z,54.07
2024-01-03T10:43:28.621Z,56.57
2024-01-03T10:44:28.693Z,58.53
2024-01-03T10:45:28.718Z,56.22
2024-01-03T10:46:28.714Z,56.59
2024-01-03T10:47:28.809Z,56.64
2024-01-03T10:48:28.929Z,57.99
2024-01-03T10:49:28.895Z,58.06
2024-01-03T10:50:28.858Z,59.05
2024-01-03T10:51:28.843Z,57.48
2024-01-03T10:52:28.874Z,57.27
2024-01-03T10:53:28.912Z,56.64
2024-01-03T10:54:28.920Z,57.87
2024-01-03T10:55:28.943Z,57.68
2024-01-03T10:56:29.007Z,58.18
2024-01-03T10:57:31.152Z,58.43
2024-01-03T10:58:29.014Z,55.99
2024-01-03T10:59:29.070Z,58.79
2024-01-03T11:00:29.064Z,57.17
2024-01-03T11:01:29.093Z,58.68
2024-01-03T11:02:29.155Z,58.39
2024-01-03T11:03:29.674Z,56.10
2024-01-03T11:04:29.162Z,58.70
2024-01-03T11:05:29.257Z,60.31
2024-01-03T11:06:29.263Z,61.23
2024-01-03T11:07:29.222Z,58.79
2024-01-03T11:08:29.264Z,58.31
2024-01-03T11:09:29.264Z,58.31
2024-01-03T11:10:29.291Z,58.21
2024-01-03T11:11:29.350Z,57.86
2024-01-03T11:12:29.417Z,57.67
2024-01-03T11:13:29.368Z,57.17
2024-01-03T11:14:29.413Z,59.46
2024-01-03T11:15:38.095Z,58.85
2024-01-03T11:16:30.416Z,58.94
2024-01-03T11:17:29.507Z,59.36
2024-01-03T11:18:29.535Z,59.41
2024-01-03T11:19:29.534Z,59.44
2024-01-03T11:20:29.469Z,60.58
2024-01-03T11:21:29.452Z,59.48
2024-01-03T11:22:29.455Z,58.83
2024-01-03T11:23:29.490Z,61.11
2024-01-03T11:24:29.491Z,58.61
2024-01-03T11:25:29.507Z,58.87
2024-01-03T11:26:29.550Z,59.05
2024-01-03T11:27:29.512Z,60.97
2024-01-03T11:28:29.524Z,58.98
2024-01-03T11:29:29.559Z,57.15
2024-01-03T11:30:29.599Z,60.69
2024-01-03T11:31:29.560Z,63.22
2024-01-03T11:32:30.423Z,60.46
2024-01-03T11:33:29.664Z,61.64
2024-01-03T11:34:29.678Z,59.79
2024-01-03T11:35:29.625Z,60.53
2024-01-03T11:36:29.594Z,59.89
2024-01-03T11:37:29.616Z,61.30
2024-01-03T11:38:30.867Z,58.82
2024-01-03T11:39:29.612Z,58.72
2024-01-03T11:40:29.637Z,60.54
2024-01-03T11:41:29.654Z,61.44
2024-01-03T11:42:29.676Z,62.36
2024-01-03T11:43:29.629Z,59.15
2024-01-03T11:44:31.532Z,59.67
2024-01-03T11:45:29.773Z,60.61
2024-01-03T11:46:29.638Z,60.99
2024-01-03T11:47:29.774Z,61.12
2024-01-03T11:48:29.746Z,60.15
2024-01-03T11:49:29.834Z,58.74
2024-01-03T11:50:30.869Z,60.90
2024-01-03T11:51:29.681Z,61.00
2024-01-03T11:52:29.718Z,61.08
2024-01-03T11:53:29.742Z,61.22
2024-01-03T11:54:29.723Z,62.31
2024-01-03T11:55:29.720Z,60.58
2024-01-03T11:56:29.763Z,61.42
2024-01-03T11:57:29.728Z,59.33
2024-01-03T11:58:29.787Z,63.06
2024-01-03T11:59:29.788Z,61.35
2024-01-03T12:00:29.801Z,62.73
2024-01-03T12:01:29.777Z,60.08
2024-01-03T12:02:29.892Z,60.92
2024-01-03T12:03:29.807Z,63.12
2024-01-03T12:04:29.827Z,60.34
2024-01-03T12:05:29.905Z,61.44
2024-01-03T12:06:29.950Z,60.39
2024-01-03T12:07:29.892Z,59.96
2024-01-03T12:08:29.967Z,61.70
2024-01-03T12:09:29.940Z,60.79
2024-01-03T12:10:30.150Z,61.95
2024-01-03T12:11:30.038Z,60.29
2024-01-03T12:12:30.022Z,61.40
2024-01-03T12:13:30.016Z,61.96
2024-01-03T12:14:30.112Z,60.03
2024-01-03T12:15:42.420Z,62.59
2024-01-03T12:16:31.104Z,62.64
2024-01-03T12:17:30.235Z,61.00
2024-01-03T12:18:30.184Z,62.70
2024-01-03T12:19:30.181Z,62.67
2024-01-03T12:20:30.173Z,61.53
2024-01-03T12:21:30.153Z,63.32
2024-01-03T12:22:30.148Z,61.09
2024-01-03T12:23:30.217Z,62.60
2024-01-03T12:24:30.164Z,60.52
2024-01-03T12:25:30.176Z,61.99
2024-01-03T12:26:30.330Z,61.20
2024-01-03T12:27:30.194Z,61.87
2024-01-03T12:28:30.206Z,60.57
2024-01-03T12:29:30.224Z,62.10
2024-01-03T12:30:30.333Z,63.67
2024-01-03T12:31:30.301Z,62.16
2024-01-03T12:32:30.360Z,63.33
2024-01-03T12:33:30.397Z,63.08
2024-01-03T12:34:30.422Z,61.86
2024-01-03T12:35:30.353Z,61.66
2024-01-03T12:36:30.338Z,61.38
2024-01-03T12:37:30.340Z,62.31
2024-01-03T12:38:30.423Z,61.66
2024-01-03T12:39:30.386Z,61.85
2024-01-03T12:40:30.393Z,65.24
2024-01-03T12:41:30.439Z,63.48
2024-01-03T12:42:39.479Z,62.87
2024-01-03T12:43:31.418Z,62.95
2024-01-03T12:44:30.473Z,63.52
2024-01-03T12:45:30.444Z,62.92
2024-01-03T12:46:30.496Z,62.91
2024-01-03T12:47:30.600Z,63.10
2024-01-03T12:48:30.666Z,62.38
2024-01-03T12:49:30.541Z,61.92
2024-01-03T12:50:30.524Z,65.68
2024-01-03T12:51:37.136Z,62.97
2024-01-03T12:52:31.559Z,63.17